createdAt,value
2023-04-11T00:01:26.179Z,7.08
2023-04-11T00:03:52.398Z,7.23
2023-04-11T00:06:18.758Z,7.09
2023-04-11T00:08:44.877Z,7.13
2023-04-11T00:11:10.985Z,7.01
2023-04-11T00:13:37.107Z,6.93
2023-04-11T00:16:03.248Z,7.02
2023-04-11T00:18:29.382Z,7.22
2023-04-11T00:20:55.518Z,7.09
2023-04-11T00:23:21.652Z,6.95
2023-04-11T00:25:47.761Z,6.83
2023-04-11T00:28:13.878Z,6.95
2023-04-11T00:30:39.980Z,6.96
2023-04-11T00:33:06.167Z,6.91
2023-04-11T00:35:32.330Z,7.06
2023-04-11T00:37:58.481Z,7.23
2023-04-11T00:40:24.600Z,7.07
2023-04-11T00:42:50.715Z,6.97
2023-04-11T00:45:16.853Z,7.15
2023-04-11T00:47:43.069Z,7.10
2023-04-11T00:50:09.185Z,6.93
2023-04-11T00:52:35.353Z,7.01
2023-04-11T00:55:01.473Z,7.17
2023-04-11T00:57:27.628Z,7.51
2023-04-11T00:59:53.818Z,6.98
2023-04-11T01:02:20.039Z,6.90
2023-04-11T01:04:46.181Z,7.02
2023-04-11T01:07:12.278Z,7.11
2023-04-11T01:09:38.420Z,6.78
2023-04-11T01:12:04.535Z,6.82
2023-04-11T01:14:30.666Z,6.49
2023-04-11T01:16:56.888Z,6.71
2023-04-11T01:19:23.039Z,6.66
2023-04-11T01:21:49.154Z,6.58
2023-04-11T01:24:15.293Z,6.43
2023-04-11T01:26:41.413Z,6.52
2023-04-11T01:29:07.576Z,6.33
2023-04-11T01:31:37.799Z,6.64
2023-04-11T01:34:05.319Z,6.52
2023-04-11T01:36:35.762Z,6.62
2023-04-11T01:39:01.914Z,6.75
2023-04-11T01:41:30.751Z,6.88
2023-04-11T01:43:56.898Z,7.06
2023-04-11T01:46:31.577Z,6.93
2023-04-11T01:48:58.083Z,7.00
2023-04-11T01:51:25.375Z,6.77
2023-04-11T01:53:51.738Z,5.73
2023-04-11T01:56:18.122Z,5.64
2023-04-11T01:58:44.476Z,5.87
2023-04-11T02:01:10.620Z,6.08
2023-04-11T02:03:37.067Z,6.36
2023-04-11T02:06:03.325Z,6.28
2023-04-11T02:08:29.450Z,6.65
2023-04-11T02:10:55.578Z,6.55
2023-04-11T02:13:21.673Z,6.61
2023-04-11T02:15:47.869Z,6.81
2023-04-11T02:18:13.980Z,6.72
2023-04-11T02:20:40.098Z,6.62
2023-04-11T02:23:06.257Z,6.65
2023-04-11T02:25:32.376Z,6.85
2023-04-11T02:27:58.476Z,6.56
2023-04-11T02:30:24.581Z,6.63
2023-04-11T02:32:50.734Z,6.70
2023-04-11T02:35:16.878Z,6.70
2023-04-11T02:37:43.019Z,6.89
2023-04-11T02:40:09.130Z,6.98
2023-04-11T02:42:35.251Z,7.05
2023-04-11T02:45:01.414Z,6.79
2023-04-11T02:47:27.585Z,6.10
2023-04-11T02:49:53.741Z,6.01
2023-04-11T02:52:19.888Z,6.27
2023-04-11T02:54:46.014Z,6.40
2023-04-11T02:57:12.122Z,6.30
2023-04-11T02:59:38.255Z,6.49
2023-04-11T03:02:04.426Z,6.55
2023-04-11T03:04:30.614Z,6.70
2023-04-11T03:06:56.774Z,7.28
2023-04-11T03:09:22.865Z,6.84
2023-04-11T03:11:48.982Z,6.49
2023-04-11T03:14:15.114Z,6.54
2023-04-11T03:16:41.204Z,6.53
2023-04-11T03:19:07.311Z,6.55
2023-04-11T03:21:33.479Z,6.72
2023-04-11T03:23:59.625Z,6.75
2023-04-11T03:26:25.722Z,6.71
2023-04-11T03:28:51.843Z,6.76
2023-04-11T03:31:18.014Z,6.70
2023-04-11T03:33:44.168Z,6.87
2023-04-11T03:36:10.378Z,7.01
2023-04-11T03:38:36.522Z,6.78
2023-04-11T03:41:02.655Z,6.79
2023-04-11T03:43:28.760Z,6.79
2023-04-11T03:45:54.888Z,6.77
2023-04-11T03:48:20.990Z,6.89
2023-04-11T03:50:47.139Z,7.01
2023-04-11T03:53:13.306Z,7.30
2023-04-11T03:55:39.428Z,6.94
2023-04-11T03:58:05.531Z,7.17
2023-04-11T04:00:31.674Z,7.15
2023-04-11T04:02:58.005Z,7.08
2023-04-11T04:05:24.342Z,7.18
2023-04-11T04:07:50.438Z,6.96
2023-04-11T04:10:16.562Z,6.97
2023-04-11T04:12:42.721Z,6.88
2023-04-11T04:15:08.864Z,6.87
2023-04-11T04:17:35.037Z,6.76
2023-04-11T04:20:01.229Z,6.88
2023-04-11T04:22:27.339Z,7.09
2023-04-11T04:24:53.447Z,7.26
2023-04-11T04:27:19.541Z,7.21
2023-04-11T04:29:45.662Z,7.11
2023-04-11T04:32:12.075Z,7.19
2023-04-11T04:34:38.199Z,7.08
2023-04-11T04:37:04.296Z,6.93
2023-04-11T04:39:30.389Z,6.78
2023-04-11T04:41:56.494Z,6.84
2023-04-11T04:44:22.598Z,6.89
2023-04-11T04:46:48.736Z,6.53
2023-04-11T04:49:14.884Z,6.71
2023-04-11T04:51:41.021Z,6.88
2023-04-11T04:54:07.115Z,6.88
2023-04-11T04:56:33.224Z,7.00
2023-04-11T04:58:59.374Z,7.00
2023-04-11T05:01:25.536Z,7.00
2023-04-11T05:03:51.750Z,7.14
2023-04-11T05:06:19.697Z,6.99
2023-04-11T05:08:46.014Z,7.09
2023-04-11T05:11:12.205Z,7.06
2023-04-11T05:13:38.356Z,7.00
2023-04-11T05:16:04.457Z,6.90
2023-04-11T05:18:30.581Z,6.90
2023-04-11T05:20:56.674Z,6.92
2023-04-11T05:23:22.829Z,6.98
2023-04-11T05:25:48.958Z,6.95
2023-04-11T05:28:15.094Z,7.42
2023-04-11T05:30:41.248Z,7.17
2023-04-11T05:33:07.424Z,7.30
2023-04-11T05:35:33.621Z,7.31
2023-04-11T05:37:59.766Z,7.33
2023-04-11T05:40:25.887Z,7.26
2023-04-11T05:42:52.041Z,7.43
2023-04-11T05:45:18.201Z,7.41
2023-04-11T05:47:44.353Z,7.43
2023-04-11T05:50:10.486Z,7.69
2023-04-11T05:52:36.625Z,7.50
2023-04-11T05:55:02.746Z,7.52
2023-04-11T05:57:28.869Z,7.79
2023-04-11T05:59:55.003Z,7.38
2023-04-11T06:02:21.289Z,7.41
2023-04-11T06:04:47.593Z,7.41
2023-04-11T06:10:07.075Z,7.53
2023-04-11T06:12:33.235Z,7.34
2023-04-11T06:14:59.355Z,7.45
2023-04-11T06:17:25.529Z,7.65
2023-04-11T06:19:51.692Z,7.51
2023-04-11T06:22:17.796Z,7.47
2023-04-11T06:24:43.925Z,7.79
2023-04-11T06:27:10.211Z,7.81
2023-04-11T06:29:36.382Z,7.80
2023-04-11T06:32:02.516Z,7.86
2023-04-11T06:34:28.636Z,7.88
2023-04-11T06:36:54.763Z,8.01
2023-04-11T06:39:20.890Z,8.13
2023-04-11T06:41:47.000Z,8.05
2023-04-11T06:44:13.151Z,8.11
2023-04-11T06:46:39.495Z,8.27
2023-04-11T06:49:07.034Z,8.34
2023-04-11T06:51:33.155Z,7.88
2023-04-11T06:53:59.326Z,7.96
2023-04-11T06:56:25.432Z,7.99
2023-04-11T06:58:51.543Z,8.22
2023-04-11T07:01:17.713Z,8.46
2023-04-11T07:03:44.063Z,8.31
2023-04-11T07:06:10.335Z,8.27
2023-04-11T07:08:36.439Z,8.54
2023-04-11T07:11:02.552Z,8.58
2023-04-11T07:13:28.671Z,8.68
2023-04-11T07:15:54.923Z,8.58
2023-04-11T07:18:21.069Z,8.48
2023-04-11T07:20:47.195Z,8.31
2023-04-11T07:23:13.324Z,8.38
2023-04-11T07:25:39.451Z,8.38
2023-04-11T07:28:05.592Z,8.42
2023-04-11T07:30:31.703Z,8.47
2023-04-11T07:32:57.898Z,8.46
2023-04-11T07:35:24.011Z,8.59
2023-04-11T07:37:50.142Z,8.76
2023-04-11T07:40:16.264Z,8.85
2023-04-11T07:42:42.456Z,9.03
2023-04-11T07:45:08.605Z,8.98
2023-04-11T07:47:34.775Z,9.07
2023-04-11T07:50:00.930Z,8.90
2023-04-11T07:52:27.053Z,8.98
2023-04-11T07:54:53.149Z,9.02
2023-04-11T07:57:19.260Z,9.02
2023-04-11T07:59:45.366Z,8.89
2023-04-11T08:02:11.678Z,8.82
2023-04-11T08:04:37.989Z,8.78
2023-04-11T08:07:04.312Z,8.99
2023-04-11T08:09:30.423Z,9.01
2023-04-11T08:11:56.558Z,8.71
2023-04-11T08:14:22.711Z,8.74
2023-04-11T08:16:50.385Z,8.42
2023-04-11T08:19:17.715Z,7.83
2023-04-11T08:21:43.955Z,8.19
2023-04-11T08:24:10.096Z,8.44
2023-04-11T08:26:36.210Z,8.54
2023-04-11T08:29:02.314Z,8.76
2023-04-11T08:31:28.585Z,8.84
2023-04-11T08:33:55.247Z,9.02
2023-04-11T08:36:22.745Z,9.05
2023-04-11T08:38:48.882Z,9.16
2023-04-11T08:41:15.021Z,8.99
2023-04-11T08:43:41.150Z,8.74
2023-04-11T08:46:07.286Z,9.19
2023-04-11T08:48:33.470Z,9.26
2023-04-11T08:50:59.602Z,9.60
2023-04-11T08:53:25.745Z,9.71
2023-04-11T08:55:51.848Z,9.57
2023-04-11T08:58:17.965Z,8.90
2023-04-11T09:00:44.121Z,7.97
2023-04-11T09:03:10.372Z,8.13
2023-04-11T09:05:36.980Z,8.66
2023-04-11T09:08:03.169Z,8.87
2023-04-11T09:10:29.320Z,8.40
2023-04-11T09:12:55.437Z,8.72
2023-04-11T09:15:21.566Z,8.64
2023-04-11T09:17:47.754Z,8.95
2023-04-11T09:20:13.928Z,9.13
2023-04-11T09:22:41.975Z,9.56
2023-04-11T09:25:09.229Z,9.06
2023-04-11T09:27:35.385Z,8.62
2023-04-11T09:30:01.523Z,8.87
2023-04-11T09:32:27.708Z,8.76
2023-04-11T09:34:53.840Z,9.25
2023-04-11T09:37:19.969Z,9.41
2023-04-11T09:39:46.097Z,9.68
2023-04-11T09:42:12.223Z,10.08
2023-04-11T09:44:38.395Z,10.15
2023-04-11T09:47:04.706Z,10.33
2023-04-11T09:49:31.045Z,10.14
2023-04-11T09:51:57.183Z,10.25
2023-04-11T09:54:23.401Z,10.44
2023-04-11T09:56:49.599Z,10.33
2023-04-11T09:59:15.718Z,10.26
2023-04-11T10:01:41.957Z,9.97
2023-04-11T10:04:08.149Z,9.64
2023-04-11T10:06:34.463Z,9.34
2023-04-11T10:09:00.641Z,8.73
2023-04-11T10:11:26.788Z,6.81
2023-04-11T10:13:52.924Z,6.17
2023-04-11T10:16:19.143Z,5.48
2023-04-11T10:18:45.282Z,5.13
2023-04-11T10:21:11.400Z,5.40
2023-04-11T10:23:37.546Z,5.79
2023-04-11T10:26:03.662Z,5.26
2023-04-11T10:28:29.817Z,5.75
2023-04-11T10:30:55.954Z,5.28
2023-04-11T10:33:22.079Z,5.13
2023-04-11T10:35:48.282Z,5.54
2023-04-11T10:38:14.471Z,5.55
2023-04-11T10:40:40.590Z,5.85
2023-04-11T10:43:06.683Z,5.86
2023-04-11T10:45:32.787Z,6.17
2023-04-11T10:47:59.000Z,6.30
2023-04-11T10:50:25.154Z,6.28
2023-04-11T10:52:51.248Z,6.19
2023-04-11T10:55:17.489Z,6.87
2023-04-11T10:57:43.624Z,7.95
2023-04-11T11:00:10.395Z,8.85
2023-04-11T11:02:37.097Z,9.49
2023-04-11T11:05:05.592Z,9.99
2023-04-11T11:07:32.091Z,10.36
2023-04-11T11:10:00.359Z,10.66
2023-04-11T11:12:26.908Z,11.13
2023-04-11T11:14:53.081Z,11.40
2023-04-11T11:17:22.733Z,11.56
2023-04-11T11:22:35.133Z,11.57
2023-04-11T11:25:07.184Z,11.65
2023-04-11T11:38:22.891Z,12.29
2023-04-11T11:49:18.851Z,12.46
2023-04-11T11:51:49.651Z,12.03
2023-04-11T12:08:10.027Z,12.74
2023-04-11T12:10:36.161Z,11.98
2023-04-11T12:13:02.298Z,11.15
2023-04-11T12:15:28.412Z,10.30
2023-04-11T12:17:54.583Z,10.03
2023-04-11T12:20:20.779Z,9.49
2023-04-11T12:22:46.898Z,9.65
2023-04-11T12:25:13.018Z,10.86
2023-04-11T12:27:39.185Z,10.79
2023-04-11T12:35:43.145Z,12.32
2023-04-11T12:52:16.417Z,9.05
2023-04-11T12:55:04.368Z,9.20
2023-04-11T12:57:32.628Z,9.09
2023-04-11T12:59:58.760Z,8.42
2023-04-11T13:02:25.083Z,8.21
2023-04-11T13:04:51.481Z,7.48
2023-04-11T13:07:17.672Z,7.15
2023-04-11T13:09:43.778Z,6.90
2023-04-11T13:12:09.898Z,7.05
2023-04-11T13:14:36.024Z,7.05
2023-04-11T13:17:02.158Z,6.93
2023-04-11T13:19:28.317Z,7.20
2023-04-11T13:21:54.515Z,6.73
2023-04-11T13:24:20.673Z,7.11
2023-04-11T13:26:46.854Z,7.06
2023-04-11T13:29:12.979Z,7.91
2023-04-11T13:31:39.140Z,8.94
2023-04-11T13:34:05.315Z,9.01
2023-04-11T13:36:31.526Z,9.62
2023-04-11T13:38:57.839Z,10.57
2023-04-11T13:41:24.316Z,11.05
2023-04-11T13:43:50.453Z,11.57
2023-04-11T13:46:30.632Z,12.04
2023-04-11T13:57:01.112Z,12.63
2023-04-11T13:59:28.116Z,12.77
2023-04-11T14:01:54.302Z,13.11
2023-04-11T14:04:20.558Z,12.81
2023-04-11T14:06:46.853Z,12.49
2023-04-11T14:09:12.975Z,12.53
2023-04-11T14:11:39.093Z,11.51
2023-04-11T14:14:05.242Z,10.59
2023-04-11T14:16:31.424Z,10.28
2023-04-11T14:18:57.868Z,9.54
2023-04-11T14:27:16.170Z,9.78
2023-04-11T14:29:42.361Z,9.91
2023-04-11T14:32:08.511Z,9.10
2023-04-11T14:34:34.760Z,8.80
2023-04-11T14:37:00.908Z,8.75
2023-04-11T14:39:27.050Z,8.47
2023-04-11T14:41:53.158Z,8.37
2023-04-11T14:44:19.261Z,8.28
2023-04-11T14:46:45.382Z,8.41
2023-04-11T14:49:11.553Z,9.56
2023-04-11T14:51:37.750Z,9.32
2023-04-11T14:54:03.894Z,9.47
2023-04-11T14:56:42.544Z,9.64
2023-04-11T14:59:28.715Z,10.37
2023-04-11T15:01:56.052Z,8.99
2023-04-11T15:04:22.433Z,9.21
2023-04-11T15:06:48.632Z,9.28
2023-04-11T15:09:14.739Z,9.38
2023-04-11T15:11:40.885Z,9.16
2023-04-11T15:14:07.013Z,8.40
2023-04-11T15:16:33.181Z,8.22
2023-04-11T15:18:59.341Z,7.95
2023-04-11T15:21:25.453Z,7.81
2023-04-11T15:23:51.577Z,7.45
2023-04-11T15:26:17.696Z,7.22
2023-04-11T15:28:44.400Z,7.38
2023-04-11T15:31:11.969Z,7.70
2023-04-11T15:33:38.125Z,7.66
2023-04-11T15:38:55.638Z,7.51
2023-04-11T15:52:15.277Z,8.15
2023-04-11T15:54:41.722Z,8.77
2023-04-11T16:07:58.144Z,9.02
2023-04-11T16:18:29.176Z,9.75
2023-04-11T16:20:55.320Z,9.91
2023-04-11T16:23:21.409Z,10.18
2023-04-11T16:25:47.580Z,10.11
2023-04-11T16:28:13.699Z,9.75
2023-04-11T16:30:39.789Z,9.63
2023-04-11T16:33:05.953Z,8.62
2023-04-11T16:35:32.124Z,9.07
2023-04-11T16:37:58.323Z,8.72
2023-04-11T16:40:24.542Z,8.34
2023-04-11T16:42:50.689Z,8.18
2023-04-11T16:45:16.856Z,8.35
2023-04-11T16:47:43.006Z,8.79
2023-04-11T16:50:09.164Z,9.11
2023-04-11T16:52:35.310Z,9.09
2023-04-11T16:55:01.438Z,9.18
2023-04-11T16:57:27.670Z,9.19
2023-04-11T16:59:53.874Z,9.07
2023-04-11T17:02:20.057Z,9.30
2023-04-11T17:04:46.247Z,9.31
2023-04-11T17:07:12.363Z,9.15
2023-04-11T17:09:38.479Z,9.23
2023-04-11T17:12:04.589Z,9.27
2023-04-11T17:14:30.757Z,9.14
2023-04-11T17:16:56.967Z,9.11
2023-04-11T17:19:23.851Z,8.96
2023-04-11T17:21:51.293Z,8.84
2023-04-11T17:24:17.513Z,8.84
2023-04-11T17:26:43.646Z,8.76
2023-04-11T17:29:10.132Z,8.84
2023-04-11T17:31:36.246Z,8.77
2023-04-11T17:34:02.381Z,8.80
2023-04-11T17:36:28.506Z,8.92
2023-04-11T17:38:54.640Z,8.92
2023-04-11T17:41:20.771Z,8.98
2023-04-11T17:43:46.900Z,8.85
2023-04-11T17:46:13.189Z,8.50
2023-04-11T17:48:39.371Z,8.50
2023-04-11T17:51:05.861Z,8.40
2023-04-11T17:53:43.854Z,8.31
2023-04-11T17:56:11.094Z,8.13
2023-04-11T17:58:37.242Z,8.22
2023-04-11T18:01:04.110Z,8.00
2023-04-11T18:03:30.383Z,7.73
2023-04-11T18:05:57.139Z,7.80
2023-04-11T18:08:36.111Z,7.84
2023-04-11T18:11:09.967Z,7.79
2023-04-11T18:13:36.498Z,7.62
2023-04-11T18:16:02.991Z,7.78
2023-04-11T18:18:30.196Z,7.82
2023-04-11T18:20:58.395Z,7.80
2023-04-11T18:23:24.528Z,7.70
2023-04-11T18:25:50.647Z,7.77
2023-04-11T18:28:16.813Z,8.00
2023-04-11T18:30:42.923Z,7.83
2023-04-11T18:33:09.069Z,7.63
2023-04-11T18:35:35.251Z,7.77
2023-04-11T18:38:01.433Z,7.74
2023-04-11T18:40:28.259Z,7.56
2023-04-11T18:42:55.830Z,7.53
2023-04-11T18:45:22.481Z,7.54
2023-04-11T18:47:48.771Z,7.43
2023-04-11T18:50:15.007Z,7.38
2023-04-11T18:55:31.884Z,7.40
2023-04-11T18:58:00.463Z,7.42
2023-04-11T19:00:27.190Z,7.38
2023-04-11T19:02:53.578Z,7.50
2023-04-11T19:05:20.591Z,7.34
2023-04-11T19:07:46.910Z,7.36
2023-04-11T19:10:13.033Z,7.42
2023-04-11T19:12:39.185Z,7.38
2023-04-11T19:15:05.278Z,7.37
2023-04-11T19:17:31.466Z,7.34
2023-04-11T19:19:57.795Z,7.31
2023-04-11T19:22:26.711Z,7.48
2023-04-11T19:24:52.816Z,7.29
2023-04-11T19:27:18.947Z,7.22
2023-04-11T19:29:45.068Z,7.22
2023-04-11T19:32:11.304Z,7.33
2023-04-11T19:34:37.462Z,7.29
2023-04-11T19:37:03.587Z,7.21
2023-04-11T19:39:29.726Z,7.28
2023-04-11T19:41:55.829Z,7.23
2023-04-11T19:44:22.053Z,7.28
2023-04-11T19:46:48.166Z,7.34
2023-04-11T19:49:14.389Z,7.10
2023-04-11T19:51:40.498Z,7.21
2023-04-11T19:54:06.630Z,7.31
2023-04-11T19:56:32.928Z,6.99
2023-04-11T19:58:59.232Z,6.89
2023-04-11T20:01:25.442Z,6.94
2023-04-11T20:03:51.748Z,6.80
2023-04-11T20:06:17.980Z,6.99
2023-04-11T20:08:44.110Z,7.12
2023-04-11T20:11:10.218Z,7.10
2023-04-11T20:13:36.338Z,7.13
2023-04-11T20:16:02.437Z,7.16
2023-04-11T20:18:28.583Z,7.19
2023-04-11T20:20:54.693Z,7.13
2023-04-11T20:23:20.810Z,7.16
2023-04-11T20:25:46.934Z,7.11
2023-04-11T20:28:13.056Z,7.04
2023-04-11T20:30:39.229Z,7.07
2023-04-11T20:33:05.424Z,6.99
2023-04-11T20:35:31.647Z,6.95
2023-04-11T20:37:57.852Z,6.92
2023-04-11T20:40:23.972Z,6.85
2023-04-11T20:42:50.139Z,6.90
2023-04-11T20:45:16.241Z,6.92
2023-04-11T20:47:42.362Z,7.05
2023-04-11T20:50:08.554Z,7.16
2023-04-11T20:52:34.709Z,6.98
2023-04-11T20:55:00.834Z,7.01
2023-04-11T20:57:26.982Z,6.62
2023-04-11T20:59:53.096Z,6.53
2023-04-11T21:02:19.394Z,6.36
2023-04-11T21:04:45.704Z,6.20
2023-04-11T21:07:11.843Z,6.33
2023-04-11T21:09:37.962Z,6.34
2023-04-11T21:12:04.085Z,6.35
2023-04-11T21:14:30.236Z,6.46
2023-04-11T21:16:56.397Z,6.44
2023-04-11T21:19:22.501Z,6.20
2023-04-11T21:21:48.617Z,6.28
2023-04-11T21:24:14.746Z,6.23
2023-04-11T21:26:40.889Z,6.05
2023-04-11T21:29:07.025Z,6.08
2023-04-11T21:31:33.270Z,6.13
2023-04-11T21:33:59.695Z,5.93
2023-04-11T21:36:26.006Z,5.84
2023-04-11T21:38:52.102Z,5.86
2023-04-11T21:41:18.379Z,5.92
2023-04-11T21:43:44.543Z,6.01
2023-04-11T21:46:10.718Z,5.90
2023-04-11T21:48:36.860Z,6.07
2023-04-11T21:51:02.958Z,6.08
2023-04-11T21:53:29.089Z,5.86
2023-04-11T21:55:55.214Z,5.71
2023-04-11T21:58:29.079Z,5.64
2023-04-11T22:00:56.114Z,5.77
2023-04-11T22:03:22.443Z,5.96
2023-04-11T22:05:55.422Z,6.13
2023-04-11T22:08:24.224Z,6.15
2023-04-11T22:10:56.525Z,6.26
2023-04-11T22:13:27.795Z,6.01
2023-04-11T22:15:53.964Z,6.01
2023-04-11T22:18:20.127Z,6.06
2023-04-11T22:20:46.252Z,6.12
2023-04-11T22:23:12.377Z,6.30
2023-04-11T22:25:38.546Z,6.18
2023-04-11T22:28:04.700Z,6.22
2023-04-11T22:30:30.873Z,6.47
2023-04-11T22:32:57.078Z,6.52
2023-04-11T22:35:23.489Z,6.33
2023-04-11T22:37:49.732Z,5.87
2023-04-11T22:40:15.833Z,6.00
2023-04-11T22:42:41.943Z,6.01
2023-04-11T22:45:08.062Z,6.25
2023-04-11T22:47:34.452Z,6.35
2023-04-11T22:50:00.730Z,6.31
2023-04-11T22:52:26.880Z,6.37
2023-04-11T22:54:52.974Z,6.37
2023-04-11T22:57:19.121Z,6.42
2023-04-11T22:59:45.276Z,6.47
2023-04-11T23:04:53.835Z,6.31
2023-04-11T23:13:19.807Z,6.36
2023-04-11T23:21:24.852Z,6.54
2023-04-11T23:23:55.056Z,6.33
2023-04-11T23:26:24.257Z,6.23
2023-04-11T23:28:56.310Z,6.28
2023-04-11T23:34:21.344Z,6.05
2023-04-11T23:36:47.837Z,5.76
2023-04-11T23:39:14.042Z,5.50
2023-04-11T23:41:41.367Z,5.57
2023-04-11T23:44:07.544Z,5.67
2023-04-11T23:46:35.835Z,5.48
2023-04-11T23:49:02.039Z,5.00
2023-04-11T23:51:28.190Z,5.37
2023-04-11T23:53:54.346Z,5.55
2023-04-11T23:56:20.611Z,5.70
2023-04-11T23:58:46.782Z,5.76
